Time;durP1;ratioP1;P1;durP2;ratioP2;P2;SDS_P1;SDS_P2;PMS_P1;PMS_P2;Temp;Humidity;BMP_temperature;BMP_pressure;BME280_temperature;BME280_humidity;BME280_pressure;Samples;Min_cycle;Max_cycle;Signal;HPM_P1;HPM_P2
2023/07/28 10:44:45;;;;;;;3.90;1.40;;;;;;;33.94;38.74;99818.41;109020;1253;59183;-90
2023/07/28 10:47:34;;;;;;;2.70;1.40;;;;;;;34.05;38.19;99827.39;109107;1253;59166;-91
2023/07/28 10:50:23;;;;;;;7.70;1.40;;;;;;;33.98;37.14;99824.91;108940;1252;65933;-91
2023/07/28 10:53:15;;;;;;;2.80;1.10;;;;;;;33.96;36.55;99817.15;108937;1254;60501;-91
2023/07/28 10:56:06;;;;;;;2.40;1.20;;;;;;;34.04;37.13;99812.92;108984;1253;63956;-89
2023/07/28 10:59:01;;;;;;;4.00;1.20;;;;;;;34.26;36.49;99813.16;108909;1254;59683;-92
2023/07/28 11:01:52;;;;;;;2.30;1.20;;;;;;;34.36;36.54;99810.48;108964;1252;59819;-92
2023/07/28 11:04:49;;;;;;;4.40;1.80;;;;;;;34.49;36.29;99816.97;108948;1253;76597;-90
2023/07/28 11:07:44;;;;;;;3.20;1.40;;;;;;;34.67;35.43;99809.48;109016;1252;61262;-91
2023/07/28 11:10:35;;;;;;;3.40;1.20;;;;;;;34.81;35.46;99806.71;108872;1254;64556;-91
2023/07/28 11:13:25;;;;;;;3.10;1.20;;;;;;;34.86;35.07;99813.98;109029;1253;59106;-90
2023/07/28 11:16:28;;;;;;;2.50;1.30;;;;;;;34.88;34.99;99818.35;108977;1256;59939;-90
2023/07/28 11:19:24;;;;;;;4.40;1.30;;;;;;;34.99;34.75;99822.33;108963;1253;68238;-91
2023/07/28 11:22:17;;;;;;;4.60;1.40;;;;;;;35.14;34.41;99824.77;108957;1253;61263;-90
2023/07/28 11:25:09;;;;;;;4.30;1.60;;;;;;;35.21;35.04;99829.21;109060;1253;74106;-92
2023/07/28 11:28:00;;;;;;;2.80;1.40;;;;;;;35.33;35.07;99831.83;108865;1253;59126;-93
2023/07/28 11:30:53;;;;;;;3.90;1.00;;;;;;;35.38;33.78;99832.23;109036;1253;59266;-93
2023/07/28 11:33:42;;;;;;;1.50;1.10;;;;;;;35.47;32.35;99835.19;108905;1253;74215;-92
2023/07/28 11:36:31;;;;;;;2.50;1.00;;;;;;;35.55;32.68;99840.48;108938;1254;68138;-90
2023/07/28 11:39:21;;;;;;;4.00;1.10;;;;;;;35.60;32.11;99841.36;108968;1253;65628;-93
2023/07/28 11:42:10;;;;;;;3.90;1.40;;;;;;;35.62;31.48;99849.73;109012;1253;59122;-90
2023/07/28 11:44:59;;;;;;;1.40;1.00;;;;;;;35.65;31.49;99852.45;108833;1254;59254;-92
2023/07/28 11:48:02;;;;;;;1.80;1.00;;;;;;;35.83;31.49;99854.42;108835;1254;67438;-92
2023/07/28 11:50:53;;;;;;;2.20;1.20;;;;;;;36.08;31.98;99851.13;108995;1253;59965;-93
2023/07/28 11:53:42;;;;;;;3.00;1.40;;;;;;;36.40;31.40;99855.81;108775;1253;63815;-92
2023/07/28 11:56:33;;;;;;;1.60;1.10;;;;;;;36.85;31.20;99858.91;109007;1254;59492;-92
2023/07/28 11:59:25;;;;;;;2.60;1.00;;;;;;;37.02;30.39;99865.31;108956;1256;59071;-91
2023/07/28 12:02:14;;;;;;;;;;;;;;;37.02;30.62;99867.73;108930;1255;64991;-92
2023/07/28 12:05:14;;;;;;;2.70;1.10;;;;;;;37.17;30.64;99874.95;108921;1253;61004;-92
2023/07/28 12:08:11;;;;;;;4.20;1.10;;;;;;;37.30;29.71;99873.82;109008;1254;64393;-91
2023/07/28 12:11:00;;;;;;;1.10;1.00;;;;;;;37.33;29.07;99877.48;108892;1254;59099;-92
2023/07/28 12:13:52;;;;;;;;;;;;;;;37.36;29.37;99880.52;108859;1253;59664;-92
2023/07/28 12:16:47;;;;;;;0.90;0.80;;;;;;;37.30;29.33;99877.72;108968;1254;65295;-93
2023/07/28 12:19:54;;;;;;;2.00;1.20;;;;;;;36.83;29.04;99880.36;108857;1253;61747;-93
2023/07/28 12:22:45;;;;;;;3.30;1.10;;;;;;;36.26;29.32;99881.27;108894;1253;64416;-91
2023/07/28 12:25:36;;;;;;;3.30;1.10;;;;;;;35.91;30.18;99887.33;108927;1253;59422;-91
2023/07/28 12:28:25;;;;;;;1.50;1.00;;;;;;;35.86;30.69;99887.42;109001;1253;59569;-92
2023/07/28 12:31:14;;;;;;;2.60;0.90;;;;;;;35.79;30.02;99885.44;109027;1253;66931;-91
2023/07/28 12:34:04;;;;;;;3.10;1.20;;;;;;;35.59;29.92;99887.39;109054;1253;60517;-91
2023/07/28 12:36:53;;;;;;;3.30;1.00;;;;;;;35.37;30.43;99888.50;108895;1253;66386;-91
2023/07/28 12:39:45;;;;;;;3.10;1.20;;;;;;;35.41;30.68;99888.91;108959;1253;59452;-91
2023/07/28 12:42:40;;;;;;;3.00;1.60;;;;;;;35.37;30.36;99891.52;108896;1253;60104;-91
2023/07/28 12:45:31;;;;;;;2.10;1.10;;;;;;;35.38;30.25;99894.00;108995;1253;68010;-93
2023/07/28 12:48:24;;;;;;;2.20;1.10;;;;;;;35.53;30.81;99898.52;109084;1252;71133;-91
2023/07/28 12:51:14;;;;;;;3.50;1.20;;;;;;;35.81;30.94;99895.26;108943;1253;64096;-91
2023/07/28 12:54:18;;;;;;;2.10;0.90;;;;;;;36.07;30.82;99900.15;108990;1253;61169;-91
2023/07/28 12:57:12;;;;;;;1.70;1.20;;;;;;;36.00;29.97;99896.20;108958;1253;59165;-91
2023/07/28 13:00:21;;;;;;;1.80;1.30;;;;;;;35.93;29.83;99898.13;109064;1253;66718;-91
2023/07/28 13:03:14;;;;;;;3.50;1.40;;;;;;;36.38;30.09;99902.70;108927;1253;61566;-93
2023/07/28 13:06:04;;;;;;;1.80;0.80;;;;;;;36.89;28.87;99904.30;108876;1253;64222;-91
2023/07/28 13:08:53;;;;;;;3.70;1.20;;;;;;;37.08;28.46;99903.05;109037;1257;59761;-91
2023/07/28 13:11:45;;;;;;;1.30;0.80;;;;;;;36.95;28.05;99903.68;109012;1253;59212;-92
2023/07/28 13:14:37;;;;;;;1.50;1.20;;;;;;;36.94;28.42;99906.27;108991;1253;67880;-91
2023/07/28 13:17:26;;;;;;;2.30;0.80;;;;;;;37.21;27.85;99905.79;109041;1252;60063;-91
2023/07/28 13:20:15;;;;;;;2.10;1.10;;;;;;;37.46;27.56;99912.69;108972;1253;64591;-91
2023/07/28 13:23:05;;;;;;;1.30;1.00;;;;;;;37.89;27.37;99910.88;108940;1252;59482;-92
2023/07/28 13:25:54;;;;;;;1.80;1.00;;;;;;;38.42;27.02;99906.57;109089;1253;59436;-90
2023/07/28 13:28:46;;;;;;;2.60;1.20;;;;;;;38.85;25.74;99908.38;108985;1253;68072;-91
2023/07/28 13:31:35;;;;;;;1.20;1.00;;;;;;;39.00;25.68;99913.81;108787;1253;252080;-91
2023/07/28 13:34:25;;;;;;;3.20;1.10;;;;;;;39.35;25.38;99914.30;109041;1253;65528;-90
2023/07/28 13:37:13;;;;;;;1.50;1.10;;;;;;;39.78;25.31;99916.36;109016;1253;59833;-90
2023/07/28 13:40:02;;;;;;;1.00;0.80;;;;;;;40.06;24.97;99916.64;109014;1252;60775;-91
2023/07/28 13:42:52;;;;;;;2.70;0.90;;;;;;;40.29;24.12;99916.33;109040;1252;66360;-91
2023/07/28 13:45:42;;;;;;;2.00;1.20;;;;;;;40.20;23.58;99913.95;108898;1253;61700;-90
2023/07/28 13:48:32;;;;;;;2.60;1.10;;;;;;;39.89;23.59;99920.05;109036;1254;65191;-89
2023/07/28 13:51:42;;;;;;;3.90;1.00;;;;;;;39.40;24.31;99927.16;108850;1253;59959;-89
2023/07/28 13:54:33;;;;;;;;;;;;;;;39.43;25.16;99922.39;109036;1253;59576;-91
2023/07/28 13:57:44;;;;;;;2.30;1.10;;;;;;;39.85;24.90;99921.30;108962;1253;67841;-90
2023/07/28 14:00:36;;;;;;;1.50;1.00;;;;;;;40.00;23.20;99927.16;109086;1253;61632;-90
2023/07/28 14:03:24;;;;;;;1.80;1.00;;;;;;;39.91;23.22;99925.83;108953;1255;64421;-90
2023/07/28 14:06:13;;;;;;;1.50;0.90;;;;;;;40.00;23.04;99926.14;108964;1254;61427;-90
2023/07/28 14:09:02;;;;;;;4.40;0.90;;;;;;;39.84;23.41;99923.54;109001;1253;59661;-92
2023/07/28 14:11:51;;;;;;;1.20;0.90;;;;;;;39.99;23.70;99920.64;108880;1253;64564;-92
2023/07/28 14:14:39;;;;;;;1.60;0.80;;;;;;;40.40;23.44;99920.48;108875;1253;60663;-90
2023/07/28 14:17:28;;;;;;;1.70;1.00;;;;;;;40.35;23.05;99919.16;108962;1253;66284;-88
2023/07/28 14:20:16;;;;;;;1.40;1.10;;;;;;;39.76;22.66;99922.85;108856;1253;59317;-89
2023/07/28 14:23:22;;;;;;;2.60;1.20;;;;;;;39.36;22.93;99923.39;108918;1253;61804;-91
2023/07/28 14:26:11;;;;;;;6.70;0.90;;;;;;;39.32;23.07;99922.39;109038;1253;66848;-91
2023/07/28 14:29:00;;;;;;;1.40;1.00;;;;;;;39.53;22.95;99925.27;108929;1253;60521;-91
2023/07/28 14:31:48;;;;;;;1.20;0.90;;;;;;;39.56;22.25;99921.74;109101;1253;64560;-91
2023/07/28 14:34:37;;;;;;;1.90;1.10;;;;;;;39.61;22.14;99923.81;108894;1253;59628;-90
2023/07/28 14:37:27;;;;;;;1.20;1.00;;;;;;;39.83;22.17;99927.46;108877;1253;59228;-91
2023/07/28 14:40:16;;;;;;;1.50;0.90;;;;;;;39.89;21.32;99927.14;108862;1253;67024;-91
2023/07/28 14:43:18;;;;;;;2.70;1.40;;;;;;;39.67;20.44;99926.70;108982;1253;61821;-89
2023/07/28 14:46:07;;;;;;;4.50;1.20;;;;;;;39.23;20.94;99935.10;108818;1253;62815;-90
2023/07/28 14:48:56;;;;;;;1.20;0.70;;;;;;;38.53;21.32;99935.11;108936;1253;61494;-90
2023/07/28 14:51:44;;;;;;;2.30;1.10;;;;;;;38.17;21.82;99937.73;108951;1253;59457;-90
2023/07/28 14:54:33;;;;;;;1.30;0.90;;;;;;;37.99;22.61;99937.37;109024;1253;68079;-89
2023/07/28 14:57:21;;;;;;;1.40;1.20;;;;;;;37.74;22.74;99940.25;109074;1252;61681;-90
2023/07/28 15:00:22;;;;;;;2.10;0.90;;;;;;;37.32;23.17;99941.27;108997;1253;63029;-90
2023/07/28 15:03:10;;;;;;;2.60;1.00;;;;;;;37.04;23.57;99947.79;108913;1252;61504;-91
2023/07/28 15:06:00;;;;;;;1.90;1.00;;;;;;;36.89;23.92;99953.13;109114;1253;59194;-92
2023/07/28 15:08:48;;;;;;;2.90;1.20;;;;;;;36.70;24.56;99946.67;109072;1254;68540;-90
2023/07/28 15:11:37;;;;;;;1.60;0.80;;;;;;;36.30;24.80;99944.56;109037;1253;61935;-90
2023/07/28 15:14:26;;;;;;;1.60;0.90;;;;;;;35.98;24.85;99944.77;108994;1253;66050;-90
2023/07/28 15:17:15;;;;;;;3.90;1.00;;;;;;;35.80;24.76;99940.12;108858;1254;59225;-90
2023/07/28 15:20:04;;;;;;;1.90;1.00;;;;;;;35.68;25.13;99944.55;109052;1253;59213;-90
2023/07/28 15:22:53;;;;;;;2.40;0.90;;;;;;;35.44;25.10;99950.65;108968;1253;65748;-90
2023/07/28 15:25:47;;;;;;;1.90;1.10;;;;;;;35.41;25.60;99948.87;109080;1253;62380;-89
2023/07/28 15:28:45;;;;;;;3.60;1.30;;;;;;;35.30;26.35;99950.59;108978;1253;62462;-90
2023/07/28 15:31:34;;;;;;;;;;;;;;;35.22;25.67;99947.89;108928;1253;59243;-90
2023/07/28 15:34:28;;;;;;;1.30;0.80;;;;;;;35.16;25.81;99950.86;108977;1253;61957;-93
2023/07/28 15:37:20;;;;;;;;;;;;;;;34.96;26.44;99953.89;109036;1253;68194;-91
2023/07/28 15:40:09;;;;;;;1.60;0.90;;;;;;;34.81;26.63;99959.67;108968;1253;59421;-90
2023/07/28 15:42:58;;;;;;;2.00;1.00;;;;;;;34.68;26.98;99960.53;108934;1253;74075;-90
2023/07/28 15:45:51;;;;;;;2.20;0.90;;;;;;;34.56;27.11;99956.61;108803;1253;60518;-90
2023/07/28 15:48:40;;;;;;;1.00;0.70;;;;;;;34.48;27.35;99952.51;109125;1253;60834;-91
2023/07/28 15:51:32;;;;;;;1.70;1.00;;;;;;;34.48;27.39;99953.95;109107;1256;67870;-92
2023/07/28 15:54:21;;;;;;;3.90;1.00;;;;;;;34.32;27.47;99954.14;108984;1253;60657;-89
2023/07/28 15:57:13;;;;;;;1.60;1.10;;;;;;;34.20;27.42;99958.10;109021;1253;64707;-91
2023/07/28 16:00:04;;;;;;;3.20;1.10;;;;;;;34.11;27.72;99959.27;108892;1254;59077;-91
2023/07/28 16:02:59;;;;;;;1.40;0.90;;;;;;;34.03;27.43;99958.20;109004;1253;61785;-90
2023/07/28 16:05:47;;;;;;;2.00;1.20;;;;;;;34.00;27.65;99955.65;109102;1253;66798;-91
2023/07/28 16:08:36;;;;;;;4.20;1.00;;;;;;;33.92;28.11;99962.84;108977;1253;61304;-89
2023/07/28 16:11:31;;;;;;;;;;;;;;;33.89;28.40;99964.09;109126;1253;65781;-91
2023/07/28 16:14:21;;;;;;;1.70;0.90;;;;;;;33.78;28.60;99963.03;108921;1255;60334;-92
2023/07/28 16:17:10;;;;;;;1.40;0.90;;;;;;;33.67;28.67;99959.05;109120;1253;59529;-92
2023/07/28 16:19:59;;;;;;;4.20;0.90;;;;;;;33.64;28.78;99958.59;108994;1253;66631;-91
2023/07/28 16:22:47;;;;;;;1.90;1.10;;;;;;;33.54;28.96;99954.90;108942;1253;61923;-91
2023/07/28 16:25:36;;;;;;;2.30;1.20;;;;;;;33.45;29.20;99951.41;109030;1253;63759;-92
2023/07/28 16:28:24;;;;;;;3.00;0.90;;;;;;;33.35;29.40;99953.91;108974;1253;59055;-93
2023/07/28 16:31:13;;;;;;;6.60;1.10;;;;;;;33.29;29.57;99958.84;109002;1254;60184;-90
2023/07/28 16:34:05;;;;;;;3.00;1.40;;;;;;;33.25;29.70;99961.39;109066;1253;64851;-91
2023/07/28 16:36:56;;;;;;;1.30;0.70;;;;;;;33.16;29.89;99961.13;108981;1253;61834;-90
2023/07/28 16:39:44;;;;;;;4.00;1.10;;;;;;;33.11;30.17;99964.50;108950;1253;66040;-91
2023/07/28 16:42:33;;;;;;;2.90;1.10;;;;;;;32.97;30.67;99967.14;108919;1253;59242;-91
2023/07/28 16:45:21;;;;;;;3.00;1.40;;;;;;;32.86;31.06;99972.17;108903;1253;59068;-90
2023/07/28 16:48:13;;;;;;;5.60;2.40;;;;;;;32.83;31.45;99975.44;108954;1253;65777;-90
2023/07/28 16:51:02;;;;;;;6.30;2.70;;;;;;;32.69;32.03;99982.23;108942;1253;60274;-92
2023/07/28 16:53:51;;;;;;;7.10;3.30;;;;;;;32.51;32.70;99989.38;109021;1253;65789;-91
2023/07/28 16:56:42;;;;;;;6.20;4.10;;;;;;;32.43;33.16;99992.46;108901;1254;59444;-90
2023/07/28 16:59:31;;;;;;;5.60;2.80;;;;;;;32.32;33.55;99990.46;108894;1253;62226;-90
2023/07/28 17:02:21;;;;;;;7.10;2.60;;;;;;;31.98;34.29;99990.98;108905;1253;75427;-93
2023/07/28 17:05:09;;;;;;;9.10;3.20;;;;;;;31.82;34.94;99999.95;109062;1253;60911;-90
2023/07/28 17:08:07;;;;;;;4.60;2.40;;;;;;;31.61;35.63;100001.50;109065;1254;66080;-90
2023/07/28 17:10:57;;;;;;;7.70;2.90;;;;;;;31.42;36.10;100002.20;109032;1253;59239;-91
2023/07/28 17:13:49;;;;;;;15.10;4.40;;;;;;;31.33;36.65;99999.60;109038;1253;59203;-89
2023/07/28 17:16:38;;;;;;;9.80;3.90;;;;;;;31.18;37.20;100003.77;109029;1254;66535;-90
2023/07/28 17:19:26;;;;;;;9.40;4.50;;;;;;;31.04;37.85;100003.46;108999;1253;70689;-89
2023/07/28 17:22:15;;;;;;;11.00;7.00;;;;;;;30.87;38.13;100005.28;108992;1254;65893;-89
2023/07/28 17:25:04;;;;;;;9.90;7.20;;;;;;;30.71;38.79;100009.23;109081;1254;59638;-90
2023/07/28 17:27:52;;;;;;;9.30;6.40;;;;;;;30.66;39.34;100012.29;108943;1254;59017;-89
2023/07/28 17:30:41;;;;;;;8.00;5.90;;;;;;;30.57;39.90;100011.54;109013;1254;77384;-89
2023/07/28 17:33:29;;;;;;;10.10;5.10;;;;;;;30.48;40.49;100012.80;108907;1254;62063;-91
2023/07/28 17:36:17;;;;;;;3.50;2.80;;;;;;;30.38;41.48;100010.95;108863;1255;64741;-90
2023/07/28 17:39:06;;;;;;;6.80;2.40;;;;;;;30.27;42.45;100008.30;109041;1254;59496;-89
2023/07/28 17:41:54;;;;;;;3.30;1.70;;;;;;;30.17;43.31;100009.77;108973;1254;59139;-88
2023/07/28 17:44:43;;;;;;;3.30;1.80;;;;;;;30.02;44.23;100010.80;108898;1253;67609;-89
2023/07/28 17:47:34;;;;;;;2.80;1.40;;;;;;;29.80;45.30;100012.61;108966;1259;61239;-90
2023/07/28 17:50:23;;;;;;;2.20;1.10;;;;;;;29.61;46.09;100016.59;108897;1259;65703;-89
2023/07/28 17:53:12;;;;;;;2.20;1.00;;;;;;;29.38;46.82;100016.13;108768;1257;59954;-90
2023/07/28 17:56:00;;;;;;;4.40;1.40;;;;;;;29.22;47.45;100019.27;108898;1254;59535;-90
2023/07/28 17:58:49;;;;;;;4.00;1.30;;;;;;;29.10;48.30;100021.88;108878;1258;67957;-90
2023/07/28 18:01:37;;;;;;;3.80;1.40;;;;;;;28.88;50.05;100023.33;108831;1254;62671;-92
2023/07/28 18:04:26;;;;;;;3.80;1.50;;;;;;;28.75;51.62;100024.65;108986;1253;72871;-90
2023/07/28 18:07:15;;;;;;;4.20;1.60;;;;;;;28.62;52.71;100027.55;108910;1254;59030;-91
2023/07/28 18:10:04;;;;;;;6.10;1.80;;;;;;;28.45;54.05;100031.90;108867;1254;59965;-89
2023/07/28 18:12:52;;;;;;;2.80;1.70;;;;;;;28.26;55.16;100042.86;108886;1253;68198;-89
2023/07/28 18:15:41;;;;;;;2.30;1.30;;;;;;;28.04;56.45;100045.77;108783;1255;59938;-89
2023/07/28 18:18:29;;;;;;;3.00;1.80;;;;;;;27.81;57.93;100047.85;108943;1256;73715;-89
2023/07/28 18:21:17;;;;;;;4.00;1.60;;;;;;;27.68;59.19;100046.54;108926;1254;59481;-90
2023/07/28 18:24:06;;;;;;;2.80;1.50;;;;;;;27.56;60.31;100057.55;108889;1259;59067;-89
2023/07/28 18:26:55;;;;;;;5.10;1.60;;;;;;;27.41;61.51;100054.86;109107;1254;77343;-91
2023/07/28 18:29:43;;;;;;;5.00;1.60;;;;;;;27.29;62.50;100057.67;109163;1254;61676;-90
2023/07/28 18:32:32;;;;;;;3.40;1.60;;;;;;;27.13;63.87;100058.23;109042;1254;65793;-88
2023/07/28 18:35:22;;;;;;;7.10;1.50;;;;;;;27.01;65.24;100058.64;109052;1254;59244;-91
2023/07/28 18:38:10;;;;;;;3.80;1.70;;;;;;;26.90;66.20;100062.97;109128;1253;59089;-91
2023/07/28 18:40:59;;;;;;;4.10;2.00;;;;;;;26.76;67.30;100063.67;109187;1254;67918;-89
2023/07/28 18:43:47;;;;;;;4.20;1.90;;;;;;;26.74;67.04;100061.98;109020;1254;61062;-90
2023/07/28 18:46:36;;;;;;;6.90;3.10;;;;;;;26.64;67.22;100064.85;109095;1254;63797;-89
2023/07/28 18:49:24;;;;;;;6.50;3.10;;;;;;;26.55;67.71;100065.56;108987;1254;59085;-89
2023/07/28 18:52:13;;;;;;;8.50;3.70;;;;;;;26.45;68.27;100068.41;108991;1259;59684;-90
2023/07/28 18:55:02;;;;;;;6.60;3.40;;;;;;;26.26;69.93;100068.20;108981;1254;68268;-91
2023/07/28 18:57:50;;;;;;;6.10;2.60;;;;;;;26.14;71.39;100063.67;109086;1253;60925;-88
2023/07/28 19:00:39;;;;;;;4.50;2.40;;;;;;;26.00;72.47;100064.02;109073;1254;65574;-89
2023/07/28 19:03:28;;;;;;;5.10;2.60;;;;;;;26.01;72.51;100065.70;108932;1254;59521;-89
2023/07/28 19:06:19;;;;;;;9.60;3.30;;;;;;;26.02;72.54;100064.10;108988;1254;59871;-89
2023/07/28 19:09:08;;;;;;;7.10;3.30;;;;;;;25.93;72.59;100065.98;109077;1252;68120;-89
2023/07/28 19:11:57;;;;;;;8.60;3.00;;;;;;;25.90;72.56;100068.85;108953;1252;60679;-88
2023/07/28 19:14:45;;;;;;;6.90;2.80;;;;;;;25.84;72.84;100068.96;109065;1253;63906;-90
2023/07/28 19:17:34;;;;;;;5.70;2.60;;;;;;;25.85;72.94;100067.14;109074;1255;59808;-90
2023/07/28 19:20:22;;;;;;;7.80;3.00;;;;;;;25.75;73.08;100071.48;109019;1258;59712;-88
2023/07/28 19:23:10;;;;;;;7.80;3.10;;;;;;;25.50;74.15;100071.88;109066;1254;68152;-91
2023/07/28 19:25:59;;;;;;;6.90;3.30;;;;;;;25.40;74.53;100074.70;108908;1258;60302;-90
2023/07/28 19:28:48;;;;;;;9.70;3.60;;;;;;;25.37;74.43;100075.71;109069;1255;75471;-89
2023/07/28 19:31:37;;;;;;;8.50;3.90;;;;;;;25.37;73.61;100076.98;108986;1259;59228;-89
2023/07/28 19:34:30;;;;;;;11.60;4.30;;;;;;;25.20;74.79;100078.16;109096;1253;61424;-89
2023/07/28 19:37:19;;;;;;;18.10;7.10;;;;;;;25.20;75.41;100076.48;109085;1253;76421;-88
2023/07/28 19:40:28;;;;;;;23.80;9.70;;;;;;;25.18;75.74;100075.26;108989;1258;69460;-90
2023/07/28 19:43:16;;;;;;;26.60;11.60;;;;;;;25.06;76.47;100078.89;108890;1253;73342;-89
2023/07/28 19:46:05;;;;;;;35.20;15.60;;;;;;;24.95;77.76;100080.79;108940;1254;60481;-90
2023/07/28 19:48:53;;;;;;;19.90;7.90;;;;;;;24.90;78.43;100080.76;108988;1253;62112;-90
2023/07/28 19:51:42;;;;;;;10.10;4.10;;;;;;;25.03;78.03;100081.66;108102;1259;76944;-90
2023/07/28 19:54:32;;;;;;;6.80;1.50;;;;;;;25.07;77.49;100085.29;108882;1254;70720;-89
2023/07/28 19:57:21;;;;;;;2.30;1.20;;;;;;;25.04;77.92;100089.65;108966;1254;74868;-89
2023/07/28 20:00:10;;;;;;;7.10;1.80;;;;;;;25.04;77.96;100089.80;109016;1253;59421;-90
2023/07/28 20:02:59;;;;;;;6.70;2.10;;;;;;;25.03;77.73;100085.17;108993;1254;63485;-89
2023/07/28 20:05:48;;;;;;;9.00;3.20;;;;;;;25.02;77.42;100088.52;108865;1254;73641;-90
2023/07/28 20:08:37;;;;;;;4.90;2.70;;;;;;;24.84;77.62;100095.16;108889;1254;69659;-91
2023/07/28 20:11:25;;;;;;;7.30;3.30;;;;;;;24.81;77.47;100094.33;109043;1254;70477;-90
2023/07/28 20:14:14;;;;;;;8.20;3.70;;;;;;;24.76;77.32;100096.91;109054;1253;61359;-91
2023/07/28 20:17:02;;;;;;;10.70;3.00;;;;;;;24.56;78.19;100099.41;109139;1254;61128;-91
2023/07/28 20:19:51;;;;;;;8.00;2.90;;;;;;;24.62;78.08;100103.80;109031;1254;74170;-92
2023/07/28 20:22:40;;;;;;;2.60;1.60;;;;;;;24.60;78.26;100104.80;108797;1254;69634;-90
2023/07/28 20:25:29;;;;;;;5.10;2.10;;;;;;;24.56;78.76;100101.81;109049;1254;72596;-90
2023/07/28 20:28:17;;;;;;;4.20;2.10;;;;;;;24.54;78.78;100095.56;108979;1254;60399;-91
2023/07/28 20:31:06;;;;;;;8.40;3.40;;;;;;;24.52;78.29;100098.17;109061;1253;59245;-90
2023/07/28 20:33:54;;;;;;;9.80;3.60;;;;;;;24.42;78.92;100100.83;109032;1253;76940;-92
2023/07/28 20:36:43;;;;;;;13.40;4.10;;;;;;;24.36;79.26;100101.24;108928;1254;68559;-91
2023/07/28 20:39:31;;;;;;;8.60;3.00;;;;;;;24.23;79.95;100106.69;108926;1254;71619;-92
2023/07/28 20:42:22;;;;;;;4.20;2.00;;;;;;;24.20;80.25;100105.05;108961;1254;60992;-91
2023/07/28 20:45:11;;;;;;;4.20;1.40;;;;;;;24.09;81.67;100105.39;108822;1254;60931;-90
2023/07/28 20:47:59;;;;;;;6.90;2.80;;;;;;;24.11;81.70;100108.75;108878;1254;74291;-89
2023/07/28 20:50:48;;;;;;;5.30;2.40;;;;;;;24.17;81.15;100109.89;108967;1254;67462;-91
2023/07/28 20:53:36;;;;;;;5.00;2.40;;;;;;;24.25;79.48;100104.70;108978;1253;73578;-89
2023/07/28 20:56:25;;;;;;;6.90;2.70;;;;;;;24.30;77.68;100101.57;108998;1253;60397;-90
2023/07/28 20:59:13;;;;;;;6.00;2.10;;;;;;;24.18;77.93;100101.13;108813;1254;61315;-90
2023/07/28 21:02:02;;;;;;;3.80;1.90;;;;;;;24.11;78.42;100100.64;108919;1253;78065;-89
2023/07/28 21:04:51;;;;;;;7.40;2.20;;;;;;;23.98;78.73;100103.09;108956;1254;71555;-89
2023/07/28 21:07:39;;;;;;;3.80;2.00;;;;;;;23.92;78.04;100103.74;109050;1254;75208;-88
2023/07/28 21:10:30;;;;;;;6.80;2.50;;;;;;;23.89;77.97;100106.64;108940;1255;62133;-89
2023/07/28 21:13:18;;;;;;;6.20;2.20;;;;;;;23.85;78.23;100106.04;109036;1253;60983;-88
2023/07/28 21:16:06;;;;;;;5.50;2.30;;;;;;;23.78;79.38;100109.04;109025;1254;73703;-90
2023/07/28 21:18:55;;;;;;;5.90;1.90;;;;;;;23.81;79.53;100102.16;108995;1253;70536;-89
2023/07/28 21:21:43;;;;;;;4.40;1.90;;;;;;;23.76;80.04;100100.25;109023;1253;72752;-88
2023/07/28 21:24:32;;;;;;;6.60;2.10;;;;;;;23.72;80.67;100106.63;108989;1254;60738;-89
